Terminal Aerodrome Forecast
Issued by NWS Binghamton, NY

Home | Current Version | Previous Version | Text Only | Print | Product List | Glossary On
Versions: 1 2 3 4 5 6 7 8 9 10 11 12 13 14 15 16 17 18 19 20
034
FTUS41 KBGM 220904 AAA
TAFAVP
TAF AMD
KAVP 220904Z 2209/2306 00000KT P6SM FEW200
      TEMPO 2209/2211 4SM BR
     FM221230 VRB03KT P6SM SCT150
     FM222200 05005KT P6SM BKN045
     FM230100 08005KT 5SM -SHRA OVC030=

USA.gov is the U.S. government's official web portal to all federal, state and local government web resources and services.